createdAt,value
2022-12-28T00:00:45.106Z,14.00
2022-12-28T00:01:45.163Z,13.60
2022-12-28T00:02:45.135Z,14.10
2022-12-28T00:03:45.093Z,14.00
2022-12-28T00:04:45.092Z,13.90
2022-12-28T00:05:45.067Z,13.80
2022-12-28T00:06:45.057Z,13.80
2022-12-28T00:07:45.068Z,13.90
2022-12-28T00:08:45.061Z,13.80
2022-12-28T00:09:45.062Z,14.00
2022-12-28T00:11:07.554Z,14.80
2022-12-28T00:11:45.060Z,13.60
2022-12-28T00:12:45.032Z,13.90
2022-12-28T00:13:45.033Z,13.80
2022-12-28T00:14:46.188Z,14.00
2022-12-28T00:15:45.036Z,14.00
2022-12-28T00:16:45.181Z,13.60
2022-12-28T00:17:45.015Z,13.70
2022-12-28T00:18:45.008Z,13.10
2022-12-28T00:19:45.005Z,13.80
2022-12-28T00:20:45.031Z,13.80
2022-12-28T00:21:45.000Z,14.30
2022-12-28T00:22:44.987Z,13.30
2022-12-28T00:23:44.991Z,13.70
2022-12-28T00:24:44.981Z,13.40
2022-12-28T00:25:44.981Z,13.40
2022-12-28T00:26:44.974Z,13.20
2022-12-28T00:27:44.973Z,13.50
2022-12-28T00:28:44.967Z,13.90
2022-12-28T00:29:44.983Z,13.30
2022-12-28T00:30:44.955Z,13.30
2022-12-28T00:31:45.008Z,13.20
2022-12-28T00:32:44.948Z,13.60
2022-12-28T00:33:44.955Z,13.00
2022-12-28T00:34:44.939Z,13.50
2022-12-28T00:35:44.933Z,13.30
2022-12-28T00:37:08.623Z,13.70
2022-12-28T00:37:44.940Z,13.80
2022-12-28T00:38:44.928Z,13.80
2022-12-28T00:39:44.924Z,13.60
2022-12-28T00:40:44.912Z,13.60
2022-12-28T00:41:44.919Z,13.80
2022-12-28T00:42:44.903Z,13.90
2022-12-28T00:43:44.912Z,13.80
2022-12-28T00:44:44.910Z,13.80
2022-12-28T00:45:45.011Z,13.80
2022-12-28T00:46:44.890Z,13.90
2022-12-28T00:47:44.885Z,13.90
2022-12-28T00:48:44.879Z,14.10
2022-12-28T00:49:44.880Z,13.70
2022-12-28T00:50:44.871Z,13.90
2022-12-28T00:51:44.869Z,13.80
2022-12-28T00:52:44.885Z,13.20
2022-12-28T00:53:44.862Z,13.50
2022-12-28T00:54:44.857Z,13.70
2022-12-28T00:55:44.854Z,13.10
2022-12-28T00:56:44.849Z,13.60
2022-12-28T00:57:44.844Z,13.50
2022-12-28T00:58:44.851Z,13.30
2022-12-28T00:59:44.835Z,12.90
2022-12-28T01:00:44.909Z,12.80
2022-12-28T01:01:44.918Z,13.10
2022-12-28T01:02:44.872Z,13.10
2022-12-28T01:03:44.821Z,12.90
2022-12-28T01:04:44.813Z,13.10
2022-12-28T01:05:44.813Z,13.00
2022-12-28T01:06:44.808Z,13.40
2022-12-28T01:07:44.812Z,13.30
2022-12-28T01:08:44.818Z,13.00
2022-12-28T01:09:44.810Z,13.50
2022-12-28T01:10:44.800Z,13.40
2022-12-28T01:11:44.787Z,13.70
2022-12-28T01:12:44.781Z,13.70
2022-12-28T01:13:44.792Z,13.20
2022-12-28T01:14:44.772Z,13.20
2022-12-28T01:15:44.770Z,13.20
2022-12-28T01:16:44.850Z,13.40
2022-12-28T01:17:44.763Z,13.20
2022-12-28T01:18:44.749Z,13.00
2022-12-28T01:19:50.269Z,13.20
2022-12-28T01:20:44.747Z,13.20
2022-12-28T01:21:44.744Z,12.90
2022-12-28T01:22:44.750Z,13.20
2022-12-28T01:23:44.748Z,12.70
2022-12-28T01:24:44.761Z,13.60
2022-12-28T01:25:44.735Z,13.30
2022-12-28T01:26:44.723Z,13.70
2022-12-28T01:27:44.718Z,13.60
2022-12-28T01:28:44.730Z,13.60
2022-12-28T01:29:44.711Z,13.70
2022-12-28T01:30:44.701Z,13.40
2022-12-28T01:31:44.753Z,13.70
2022-12-28T01:32:44.713Z,13.60
2022-12-28T01:33:44.708Z,13.90
2022-12-28T01:34:44.682Z,13.80
2022-12-28T01:35:44.689Z,14.20
2022-12-28T01:36:44.679Z,14.60
2022-12-28T01:37:44.678Z,14.10
2022-12-28T01:38:44.675Z,14.20
2022-12-28T01:39:44.692Z,14.00
2022-12-28T01:40:44.691Z,14.30
2022-12-28T01:41:44.670Z,14.30
2022-12-28T01:42:44.656Z,14.30
2022-12-28T01:43:44.664Z,14.00
2022-12-28T01:44:44.674Z,13.30
2022-12-28T01:45:44.761Z,14.20
2022-12-28T01:46:44.642Z,13.60
2022-12-28T01:47:44.642Z,13.90
2022-12-28T01:48:44.631Z,13.40
2022-12-28T01:49:44.632Z,13.70
2022-12-28T01:50:44.623Z,13.60
2022-12-28T01:51:44.627Z,13.60
2022-12-28T01:52:44.617Z,13.50
2022-12-28T01:53:44.621Z,13.20
2022-12-28T01:54:44.606Z,13.80
2022-12-28T01:55:44.657Z,13.40
2022-12-28T01:56:44.626Z,13.50
2022-12-28T01:57:44.604Z,13.50
2022-12-28T01:58:44.590Z,13.20
2022-12-28T01:59:44.595Z,13.40
2022-12-28T02:00:44.584Z,13.00
2022-12-28T02:01:44.711Z,12.80
2022-12-28T02:02:44.778Z,13.70
2022-12-28T02:03:44.581Z,13.90
2022-12-28T02:04:44.571Z,14.30
2022-12-28T02:05:44.570Z,14.10
2022-12-28T02:06:44.559Z,14.50
2022-12-28T02:07:44.569Z,14.20
2022-12-28T02:08:44.564Z,13.70
2022-12-28T02:09:44.560Z,13.90
2022-12-28T02:10:45.958Z,14.10
2022-12-28T02:11:44.544Z,13.40
2022-12-28T02:12:44.579Z,14.00
2022-12-28T02:13:44.535Z,14.10
2022-12-28T02:14:44.537Z,14.00
2022-12-28T02:15:44.530Z,13.40
2022-12-28T02:16:44.610Z,14.10
2022-12-28T02:17:44.522Z,13.60
2022-12-28T02:18:44.508Z,14.10
2022-12-28T02:19:44.519Z,13.70
2022-12-28T02:20:44.510Z,13.50
2022-12-28T02:21:44.510Z,13.70
2022-12-28T02:22:44.503Z,13.70
2022-12-28T02:23:44.492Z,13.60
2022-12-28T02:24:44.490Z,13.50
2022-12-28T02:25:44.484Z,13.80
2022-12-28T02:26:44.490Z,13.50
2022-12-28T02:27:44.478Z,13.90
2022-12-28T02:28:44.526Z,13.60
2022-12-28T02:29:44.468Z,13.20
2022-12-28T02:30:44.507Z,13.70
2022-12-28T02:31:44.455Z,13.80
2022-12-28T02:32:44.456Z,13.90
2022-12-28T02:33:44.456Z,13.70
2022-12-28T02:34:44.446Z,13.60
2022-12-28T02:35:44.445Z,13.60
2022-12-28T02:36:44.433Z,13.50
2022-12-28T02:37:44.434Z,13.70
2022-12-28T02:38:44.425Z,13.50
2022-12-28T02:39:44.428Z,14.20
2022-12-28T02:40:44.432Z,13.90
2022-12-28T02:41:44.424Z,13.30
2022-12-28T02:42:44.409Z,14.10
2022-12-28T02:43:44.408Z,13.90
2022-12-28T02:44:44.425Z,14.00
2022-12-28T02:45:44.450Z,14.00
2022-12-28T02:46:44.397Z,13.80
2022-12-28T02:47:44.388Z,14.20
2022-12-28T02:48:44.391Z,13.60
2022-12-28T02:49:44.394Z,14.00
2022-12-28T02:50:44.380Z,13.50
2022-12-28T02:51:44.371Z,14.00
2022-12-28T02:52:44.371Z,14.00
2022-12-28T02:53:44.366Z,14.10
2022-12-28T02:54:44.370Z,14.40
2022-12-28T02:55:44.358Z,14.10
2022-12-28T02:56:44.352Z,13.80
2022-12-28T02:57:44.347Z,13.60
2022-12-28T02:58:44.349Z,13.70
2022-12-28T02:59:44.343Z,13.30
2022-12-28T03:00:44.365Z,12.80
2022-12-28T03:01:44.467Z,13.30
2022-12-28T03:02:44.474Z,13.20
2022-12-28T03:03:44.321Z,13.00
2022-12-28T03:04:44.319Z,13.30
2022-12-28T03:05:44.322Z,13.50
2022-12-28T03:06:44.316Z,13.40
2022-12-28T03:07:44.304Z,13.10
2022-12-28T03:08:44.302Z,13.40
2022-12-28T03:09:44.301Z,13.20
2022-12-28T03:10:44.293Z,13.30
2022-12-28T03:11:44.290Z,13.50
2022-12-28T03:12:44.293Z,13.10
2022-12-28T03:13:44.324Z,13.30
2022-12-28T03:14:44.288Z,12.90
2022-12-28T03:15:44.276Z,13.50
2022-12-28T03:16:44.296Z,13.40
2022-12-28T03:17:44.268Z,13.40
2022-12-28T03:18:44.262Z,13.70
2022-12-28T03:19:44.256Z,12.90
2022-12-28T03:20:44.284Z,13.00
2022-12-28T03:21:44.258Z,13.40
2022-12-28T03:22:44.249Z,13.10
2022-12-28T03:23:44.239Z,12.80
2022-12-28T03:24:44.238Z,13.20
2022-12-28T03:25:44.243Z,13.70
2022-12-28T03:26:44.232Z,13.50
2022-12-28T03:27:44.232Z,13.10
2022-12-28T03:28:44.219Z,13.10
2022-12-28T03:29:44.213Z,12.90
2022-12-28T03:30:44.225Z,13.20
2022-12-28T03:31:44.204Z,13.10
2022-12-28T03:32:44.228Z,13.10
2022-12-28T03:33:44.199Z,13.20
2022-12-28T03:34:44.197Z,12.90
2022-12-28T03:35:44.186Z,12.60
2022-12-28T03:36:44.200Z,12.80
2022-12-28T03:37:44.178Z,13.10
2022-12-28T03:38:44.181Z,13.10
2022-12-28T03:39:44.173Z,12.90
2022-12-28T03:40:44.176Z,13.00
2022-12-28T03:41:44.167Z,12.40
2022-12-28T03:42:44.161Z,12.90
2022-12-28T03:43:44.157Z,13.20
2022-12-28T03:44:44.155Z,12.90
2022-12-28T03:45:47.091Z,12.60
2022-12-28T03:46:44.211Z,13.10
2022-12-28T03:47:44.137Z,13.50
2022-12-28T03:48:44.179Z,12.20
2022-12-28T03:49:44.132Z,13.20
2022-12-28T03:50:44.133Z,13.00
2022-12-28T03:51:44.117Z,13.10
2022-12-28T03:52:44.123Z,13.10
2022-12-28T03:53:44.126Z,13.00
2022-12-28T03:54:44.109Z,12.80
2022-12-28T03:55:44.105Z,13.00
2022-12-28T03:56:44.107Z,13.10
2022-12-28T03:57:44.097Z,12.90
2022-12-28T03:58:44.095Z,12.50
2022-12-28T03:59:44.107Z,12.90
2022-12-28T04:00:44.083Z,12.70
2022-12-28T04:01:44.157Z,13.20
2022-12-28T04:02:44.227Z,12.80
2022-12-28T04:03:44.391Z,12.70
2022-12-28T04:04:44.095Z,12.40
2022-12-28T04:05:44.061Z,13.00
2022-12-28T04:06:44.072Z,13.10
2022-12-28T04:07:44.047Z,12.70
2022-12-28T04:08:44.048Z,12.50
2022-12-28T04:09:44.039Z,13.30
2022-12-28T04:10:44.053Z,12.80
2022-12-28T04:11:44.032Z,13.20
2022-12-28T04:12:44.033Z,12.80
2022-12-28T04:13:44.027Z,12.90
2022-12-28T04:14:44.022Z,13.00
2022-12-28T04:15:44.071Z,13.20
2022-12-28T04:16:44.019Z,12.80
2022-12-28T04:17:44.008Z,12.70
2022-12-28T04:18:44.020Z,12.80
2022-12-28T04:19:44.001Z,12.60
2022-12-28T04:20:44.023Z,13.00
2022-12-28T04:21:43.999Z,13.40
2022-12-28T04:22:43.989Z,13.60
2022-12-28T04:23:43.980Z,13.30
2022-12-28T04:24:43.984Z,13.50
2022-12-28T04:25:43.975Z,13.70
2022-12-28T04:26:43.973Z,13.30
2022-12-28T04:27:43.973Z,13.10
2022-12-28T04:28:43.962Z,13.40
2022-12-28T04:29:43.955Z,13.40
2022-12-28T04:30:43.959Z,13.10
2022-12-28T04:31:44.000Z,13.60
2022-12-28T04:32:43.944Z,13.20
2022-12-28T04:33:43.946Z,13.30
2022-12-28T04:34:48.364Z,13.50
2022-12-28T04:35:43.930Z,12.90
2022-12-28T04:36:43.948Z,13.10
2022-12-28T04:37:43.923Z,13.60
2022-12-28T04:38:43.918Z,13.10
2022-12-28T04:39:55.420Z,13.20
2022-12-28T04:40:43.912Z,12.90
2022-12-28T04:41:43.901Z,13.60
2022-12-28T04:42:43.901Z,13.60
2022-12-28T04:43:43.891Z,13.00
2022-12-28T04:44:43.897Z,13.60
2022-12-28T04:45:43.887Z,13.40
2022-12-28T04:46:43.961Z,13.30
2022-12-28T04:47:43.879Z,13.60
2022-12-28T04:48:43.902Z,13.10
2022-12-28T04:49:43.868Z,12.40
2022-12-28T04:50:43.866Z,13.50
2022-12-28T04:51:43.866Z,13.40
2022-12-28T04:52:43.876Z,13.20
2022-12-28T04:53:43.853Z,13.80
2022-12-28T04:54:43.851Z,13.00
2022-12-28T04:55:43.842Z,13.20
2022-12-28T04:56:43.850Z,13.50
2022-12-28T04:57:43.835Z,14.20
2022-12-28T04:58:43.870Z,13.50
2022-12-28T04:59:43.828Z,12.70
2022-12-28T05:00:43.896Z,13.10
2022-12-28T05:01:44.024Z,12.70
2022-12-28T05:02:46.380Z,13.00
2022-12-28T05:03:46.021Z,13.30
2022-12-28T05:04:43.811Z,12.70
2022-12-28T05:05:43.800Z,13.20
2022-12-28T05:06:43.802Z,12.50
2022-12-28T05:07:43.802Z,12.70
2022-12-28T05:08:43.817Z,12.80
2022-12-28T05:09:43.784Z,13.10
2022-12-28T05:10:43.782Z,12.50
2022-12-28T05:11:43.769Z,11.90
2022-12-28T05:12:43.770Z,13.10
2022-12-28T05:13:43.763Z,12.90
2022-12-28T05:14:43.760Z,12.40
2022-12-28T05:15:43.755Z,12.80
2022-12-28T05:16:43.757Z,12.20
2022-12-28T05:17:43.748Z,12.20
2022-12-28T05:18:43.741Z,13.10
2022-12-28T05:19:43.735Z,12.10
2022-12-28T05:20:43.749Z,12.60
2022-12-28T05:21:43.726Z,12.40
2022-12-28T05:22:43.730Z,12.60
2022-12-28T05:23:43.734Z,12.30
2022-12-28T05:24:43.743Z,11.90
2022-12-28T05:25:43.708Z,12.20
2022-12-28T05:26:43.705Z,12.90
2022-12-28T05:27:43.707Z,12.40
2022-12-28T05:28:43.709Z,12.50
2022-12-28T05:29:43.692Z,12.30
2022-12-28T05:30:43.694Z,12.00
2022-12-28T05:31:43.729Z,13.30
2022-12-28T05:32:43.677Z,12.10
2022-12-28T05:33:43.677Z,12.20
2022-12-28T05:34:43.673Z,12.30
2022-12-28T05:35:43.662Z,12.50
2022-12-28T05:36:43.665Z,12.60
2022-12-28T05:37:43.658Z,12.00
2022-12-28T05:38:43.653Z,13.30
2022-12-28T05:39:43.650Z,12.00
2022-12-28T05:40:43.668Z,12.00
2022-12-28T05:41:43.648Z,11.90
2022-12-28T05:42:49.470Z,11.60
2022-12-28T05:43:43.633Z,12.20
2022-12-28T05:44:43.628Z,12.30
2022-12-28T05:45:43.619Z,11.60
2022-12-28T05:46:43.696Z,12.30
2022-12-28T05:47:43.615Z,12.00
2022-12-28T05:48:43.614Z,11.90
2022-12-28T05:49:43.615Z,12.50
2022-12-28T05:50:43.604Z,12.30
2022-12-28T05:51:43.598Z,12.00
2022-12-28T05:52:43.607Z,12.00
2022-12-28T05:53:43.583Z,11.80
2022-12-28T05:54:43.583Z,11.60
2022-12-28T05:55:43.577Z,11.90
2022-12-28T05:56:43.603Z,12.20
2022-12-28T05:57:43.568Z,11.80
2022-12-28T05:58:43.580Z,11.90
2022-12-28T05:59:43.563Z,11.90
2022-12-28T06:00:43.561Z,12.20
2022-12-28T06:01:43.649Z,12.00
2022-12-28T06:02:43.672Z,11.90
2022-12-28T06:03:43.542Z,11.80
2022-12-28T06:04:43.541Z,11.40
2022-12-28T06:05:43.538Z,12.10
2022-12-28T06:06:43.537Z,12.30
2022-12-28T06:07:43.528Z,12.00
2022-12-28T06:08:43.545Z,12.10
2022-12-28T06:09:43.530Z,11.10
2022-12-28T06:10:43.513Z,10.90
2022-12-28T06:11:43.527Z,10.80
2022-12-28T06:12:43.535Z,10.80
2022-12-28T06:13:43.501Z,10.50
2022-12-28T06:14:43.508Z,10.40
2022-12-28T06:15:43.557Z,10.20
2022-12-28T06:16:43.612Z,10.60
2022-12-28T06:17:43.497Z,10.70
2022-12-28T06:18:43.478Z,10.20
2022-12-28T06:19:43.468Z,11.10
2022-12-28T06:20:43.480Z,10.40
2022-12-28T06:21:43.480Z,10.60
2022-12-28T06:22:43.466Z,10.70
2022-12-28T06:23:43.466Z,10.30
2022-12-28T06:24:43.452Z,10.70
2022-12-28T06:25:43.451Z,10.80
2022-12-28T06:26:43.450Z,10.70
2022-12-28T06:27:43.437Z,10.90
2022-12-28T06:28:43.460Z,11.20
2022-12-28T06:29:43.428Z,11.80
2022-12-28T06:30:48.984Z,12.10
2022-12-28T06:31:43.440Z,11.30
2022-12-28T06:32:43.420Z,11.60
2022-12-28T06:33:43.418Z,11.60
2022-12-28T06:34:43.409Z,11.40
2022-12-28T06:35:43.403Z,11.70
2022-12-28T06:36:43.404Z,11.40
2022-12-28T06:37:43.396Z,11.10
2022-12-28T06:38:43.399Z,10.80
2022-12-28T06:39:43.391Z,11.20
2022-12-28T06:41:43.393Z,11.10
2022-12-28T06:42:43.377Z,11.10
2022-12-28T06:43:43.390Z,11.00
2022-12-28T06:44:44.905Z,11.60
2022-12-28T06:45:43.441Z,11.00
2022-12-28T06:46:43.377Z,11.00
2022-12-28T06:47:43.354Z,11.10
2022-12-28T06:48:43.356Z,11.10
2022-12-28T06:49:43.343Z,11.00
2022-12-28T06:50:43.341Z,11.30
2022-12-28T06:51:43.336Z,11.10
2022-12-28T06:52:43.334Z,10.90
2022-12-28T06:53:43.339Z,11.10
2022-12-28T06:54:43.324Z,11.50
2022-12-28T06:55:43.320Z,11.70
2022-12-28T06:56:43.322Z,12.40
2022-12-28T06:57:43.310Z,13.10
2022-12-28T06:58:43.307Z,13.40
2022-12-28T06:59:43.311Z,13.30
2022-12-28T07:00:43.316Z,13.70
2022-12-28T07:01:43.525Z,14.10
2022-12-28T07:02:43.361Z,14.80
2022-12-28T07:03:43.290Z,15.50
2022-12-28T07:04:43.279Z,15.90
2022-12-28T07:05:43.285Z,16.70
2022-12-28T07:06:43.282Z,16.60
2022-12-28T07:07:43.268Z,16.10
2022-12-28T07:08:43.261Z,15.60
2022-12-28T07:09:43.262Z,16.10
2022-12-28T07:10:43.253Z,16.40
2022-12-28T07:11:43.305Z,16.50
2022-12-28T07:12:43.245Z,16.00
2022-12-28T07:13:43.253Z,15.90
2022-12-28T07:14:43.248Z,15.80
2022-12-28T07:15:43.232Z,15.70
2022-12-28T07:16:43.249Z,15.30
2022-12-28T07:17:43.238Z,15.70
2022-12-28T07:18:43.217Z,15.40
2022-12-28T07:19:43.215Z,15.20
2022-12-28T07:20:43.213Z,15.40
2022-12-28T07:21:43.222Z,15.20
2022-12-28T07:22:43.203Z,15.40
2022-12-28T07:23:43.233Z,15.70
2022-12-28T07:24:43.198Z,15.40
2022-12-28T07:25:43.206Z,15.70
2022-12-28T07:26:43.210Z,15.40
2022-12-28T07:27:43.186Z,15.70
2022-12-28T07:28:43.178Z,15.90
2022-12-28T07:29:43.170Z,16.00
2022-12-28T07:30:43.325Z,16.10
2022-12-28T07:31:45.867Z,16.40
2022-12-28T07:32:43.175Z,16.20
2022-12-28T07:33:43.169Z,16.00
2022-12-28T07:34:43.144Z,15.80
2022-12-28T07:35:43.141Z,15.80
2022-12-28T07:36:43.139Z,15.40
2022-12-28T07:37:43.130Z,15.20
2022-12-28T07:38:43.133Z,15.30
2022-12-28T07:39:43.127Z,15.40
2022-12-28T07:40:43.124Z,15.60
2022-12-28T07:41:43.116Z,15.20
2022-12-28T07:42:43.111Z,15.00
2022-12-28T07:43:43.127Z,15.20
2022-12-28T07:44:48.808Z,14.90
2022-12-28T07:45:43.124Z,14.80
2022-12-28T07:46:43.096Z,14.40
2022-12-28T07:47:43.088Z,14.90
2022-12-28T07:48:43.109Z,14.70
2022-12-28T07:49:43.082Z,15.00
2022-12-28T07:50:43.069Z,14.50
2022-12-28T07:51:43.079Z,14.90
2022-12-28T07:52:43.061Z,14.90
2022-12-28T07:53:43.066Z,15.00
2022-12-28T07:54:43.051Z,14.80
2022-12-28T07:55:43.050Z,15.10
2022-12-28T07:56:43.039Z,14.30
2022-12-28T07:57:43.050Z,15.00
2022-12-28T07:59:27.408Z,15.10
2022-12-28T08:00:22.520Z,15.20
2022-12-28T08:01:22.609Z,14.70
2022-12-28T08:02:22.554Z,15.00
2022-12-28T08:03:22.591Z,14.80
2022-12-28T08:04:22.518Z,14.90
2022-12-28T08:05:22.488Z,14.70
2022-12-28T08:06:22.480Z,14.50
2022-12-28T08:07:22.498Z,14.60
2022-12-28T08:08:22.476Z,14.30
2022-12-28T08:09:22.477Z,13.90
2022-12-28T08:10:22.464Z,13.80
2022-12-28T08:11:22.469Z,14.00
2022-12-28T08:12:22.457Z,14.00
2022-12-28T08:13:22.451Z,14.00
2022-12-28T08:14:22.445Z,13.80
2022-12-28T08:15:22.446Z,14.30
2022-12-28T08:16:22.518Z,14.10
2022-12-28T08:17:22.435Z,13.60
2022-12-28T08:18:22.430Z,14.40
2022-12-28T08:19:22.424Z,13.90
2022-12-28T08:20:22.443Z,13.90
2022-12-28T08:21:22.413Z,14.30
2022-12-28T08:22:22.422Z,14.20
2022-12-28T08:23:22.411Z,14.60
2022-12-28T08:24:22.400Z,14.30
2022-12-28T08:25:22.409Z,14.40
2022-12-28T08:26:22.395Z,14.30
2022-12-28T08:27:22.391Z,14.00
2022-12-28T08:28:22.379Z,13.90
2022-12-28T08:29:22.395Z,14.50
2022-12-28T08:30:22.373Z,15.10
2022-12-28T08:31:22.406Z,14.90
2022-12-28T08:32:22.364Z,14.80
2022-12-28T08:33:22.367Z,14.90
2022-12-28T08:34:22.352Z,14.30
2022-12-28T08:35:22.355Z,14.40
2022-12-28T08:36:22.368Z,14.10
2022-12-28T08:37:22.344Z,14.70
2022-12-28T08:38:22.343Z,14.50
2022-12-28T08:39:22.339Z,14.40
2022-12-28T08:40:22.330Z,14.20
2022-12-28T08:41:22.325Z,14.20
2022-12-28T08:42:22.319Z,17.40
2022-12-28T08:43:22.316Z,14.00
2022-12-28T08:44:22.320Z,14.10
2022-12-28T08:45:22.313Z,13.30
2022-12-28T08:46:22.523Z,14.00
2022-12-28T08:47:22.304Z,13.40
2022-12-28T08:48:22.297Z,13.30
2022-12-28T08:49:22.305Z,13.30
2022-12-28T08:50:27.948Z,13.50
2022-12-28T08:51:22.286Z,13.30
2022-12-28T08:52:22.295Z,13.00
2022-12-28T08:53:22.273Z,13.10
2022-12-28T08:54:22.268Z,13.70
2022-12-28T08:55:22.272Z,13.20
2022-12-28T08:56:22.269Z,13.80
2022-12-28T08:57:22.259Z,13.20
2022-12-28T08:58:22.260Z,13.40
2022-12-28T08:59:22.253Z,13.60
2022-12-28T09:00:22.241Z,13.30
2022-12-28T09:01:22.410Z,13.00
2022-12-28T09:02:22.456Z,13.10
2022-12-28T09:03:22.295Z,12.80
2022-12-28T09:04:22.279Z,12.90
2022-12-28T09:05:22.245Z,13.20
2022-12-28T09:06:22.226Z,12.80
2022-12-28T09:07:22.217Z,12.80
2022-12-28T09:08:22.243Z,12.90
2022-12-28T09:09:22.220Z,13.10
2022-12-28T09:10:22.337Z,12.90
2022-12-28T09:11:22.200Z,13.30
2022-12-28T09:12:22.191Z,13.40
2022-12-28T09:13:22.199Z,13.10
2022-12-28T09:14:24.063Z,13.10
2022-12-28T09:15:22.185Z,13.20
2022-12-28T09:16:22.207Z,13.40
2022-12-28T09:17:22.173Z,13.60
2022-12-28T09:18:22.180Z,13.60
2022-12-28T09:19:22.194Z,13.90
2022-12-28T09:20:22.191Z,14.10
2022-12-28T09:21:22.157Z,13.70
2022-12-28T09:22:22.152Z,15.90
2022-12-28T09:23:22.151Z,14.50
2022-12-28T09:24:22.219Z,14.10
2022-12-28T09:25:22.144Z,14.40
2022-12-28T09:26:22.140Z,14.40
2022-12-28T09:27:22.135Z,14.20
2022-12-28T09:28:22.125Z,13.80
2022-12-28T09:29:22.126Z,13.90
2022-12-28T09:30:22.117Z,13.60
2022-12-28T09:31:22.164Z,13.90
2022-12-28T09:32:22.109Z,14.00
2022-12-28T09:33:22.111Z,13.50
2022-12-28T09:34:38.434Z,13.70
2022-12-28T09:35:22.103Z,14.00
2022-12-28T09:36:22.093Z,13.40
2022-12-28T09:37:22.094Z,13.10
2022-12-28T09:38:22.083Z,12.90
2022-12-28T09:39:22.124Z,12.50
2022-12-28T09:40:22.108Z,13.30
2022-12-28T09:41:22.073Z,13.30
2022-12-28T09:42:22.070Z,12.60
2022-12-28T09:43:22.089Z,13.20
2022-12-28T09:44:22.063Z,12.50
2022-12-28T09:45:22.061Z,12.70
2022-12-28T09:46:22.121Z,13.20
2022-12-28T09:47:22.056Z,13.30
2022-12-28T09:48:22.047Z,13.20
2022-12-28T09:49:22.046Z,13.70
2022-12-28T09:50:22.062Z,13.00
2022-12-28T09:51:22.046Z,12.90
2022-12-28T09:52:22.060Z,12.60
2022-12-28T09:53:22.029Z,12.80
2022-12-28T09:54:22.020Z,13.40
2022-12-28T09:55:22.024Z,12.80
2022-12-28T09:56:22.041Z,12.20
2022-12-28T09:57:22.027Z,12.40
2022-12-28T09:58:22.007Z,13.00
2022-12-28T09:59:22.008Z,12.40
2022-12-28T10:00:22.010Z,12.70
2022-12-28T10:01:22.161Z,12.80
2022-12-28T10:02:22.153Z,13.10
2022-12-28T10:03:22.061Z,13.00
2022-12-28T10:04:21.979Z,13.10
2022-12-28T10:05:22.004Z,12.50
2022-12-28T10:06:21.984Z,12.70
2022-12-28T10:07:21.972Z,12.90
2022-12-28T10:08:21.971Z,12.50
2022-12-28T10:09:21.967Z,11.70
2022-12-28T10:10:21.969Z,12.10
2022-12-28T10:11:21.963Z,12.80
2022-12-28T10:12:21.983Z,12.60
2022-12-28T10:13:52.945Z,12.80
2022-12-28T10:14:21.943Z,12.10
2022-12-28T10:15:21.943Z,12.80
2022-12-28T10:16:22.051Z,12.60
2022-12-28T10:17:21.937Z,13.60
2022-12-28T10:18:21.936Z,12.80
2022-12-28T10:19:21.927Z,13.10
2022-12-28T10:20:21.929Z,13.70
2022-12-28T10:21:26.814Z,13.70
2022-12-28T10:22:21.911Z,13.20
2022-12-28T10:23:21.912Z,12.90
2022-12-28T10:24:31.243Z,13.40
2022-12-28T10:25:21.915Z,13.60
2022-12-28T10:26:21.902Z,13.40
2022-12-28T10:27:21.902Z,13.60
2022-12-28T10:28:21.915Z,14.30
2022-12-28T10:29:21.893Z,14.10
2022-12-28T10:30:21.883Z,13.80
2022-12-28T10:31:21.919Z,13.70
2022-12-28T10:32:21.889Z,13.70
2022-12-28T10:33:21.878Z,13.80
2022-12-28T10:34:21.868Z,13.70
2022-12-28T10:35:21.871Z,13.50
2022-12-28T10:36:23.706Z,14.00
2022-12-28T10:37:21.863Z,13.90
2022-12-28T10:38:21.861Z,14.00
2022-12-28T10:39:21.867Z,13.70
2022-12-28T10:40:21.852Z,13.50
2022-12-28T10:41:21.860Z,13.80
2022-12-28T10:42:21.841Z,13.70
2022-12-28T10:43:21.841Z,13.90
2022-12-28T10:44:38.799Z,14.00
2022-12-28T10:45:21.845Z,13.50
2022-12-28T10:46:21.874Z,14.50
2022-12-28T10:47:21.824Z,14.20
2022-12-28T10:48:21.831Z,13.80
2022-12-28T10:49:21.832Z,14.20
2022-12-28T10:50:37.433Z,13.90
2022-12-28T10:51:21.828Z,13.90
2022-12-28T10:52:21.808Z,14.20
2022-12-28T10:53:21.807Z,13.90
2022-12-28T10:54:27.872Z,14.30
2022-12-28T10:55:21.797Z,14.30
2022-12-28T10:56:21.802Z,14.00
2022-12-28T10:57:21.809Z,14.10
2022-12-28T10:58:31.214Z,14.10
2022-12-28T10:59:21.788Z,14.00
2022-12-28T11:00:21.804Z,13.80
2022-12-28T11:01:21.874Z,14.30
2022-12-28T11:02:21.896Z,14.00
2022-12-28T11:03:21.983Z,14.50
2022-12-28T11:04:21.765Z,14.10
2022-12-28T11:05:21.822Z,14.30
2022-12-28T11:06:26.708Z,14.00
2022-12-28T11:07:21.755Z,13.80
2022-12-28T11:08:21.748Z,13.80
2022-12-28T11:09:21.751Z,14.10
2022-12-28T11:10:21.740Z,14.00
2022-12-28T11:11:21.749Z,14.00
2022-12-28T11:12:21.735Z,14.20
2022-12-28T11:13:22.205Z,13.70
2022-12-28T11:14:21.729Z,13.80
2022-12-28T11:15:21.742Z,14.10
2022-12-28T11:16:21.792Z,13.70
2022-12-28T11:17:21.724Z,14.10
2022-12-28T11:18:21.717Z,14.40
2022-12-28T11:19:21.720Z,14.40
2022-12-28T11:20:21.717Z,13.90
2022-12-28T11:21:21.716Z,14.30
2022-12-28T11:22:21.717Z,14.30
2022-12-28T11:23:21.701Z,14.20
2022-12-28T11:24:21.693Z,14.00
2022-12-28T11:25:21.693Z,13.70
2022-12-28T11:26:21.701Z,13.70
2022-12-28T11:27:21.690Z,14.50
2022-12-28T11:28:22.292Z,14.10
2022-12-28T11:29:21.688Z,14.40
2022-12-28T11:30:21.680Z,14.20
2022-12-28T11:31:21.710Z,14.50
2022-12-28T11:32:21.687Z,14.80
2022-12-28T11:33:21.671Z,14.10
2022-12-28T11:34:21.669Z,14.30
2022-12-28T11:35:21.677Z,14.70
2022-12-28T11:36:21.662Z,15.00
2022-12-28T11:37:21.666Z,14.40
2022-12-28T11:38:21.652Z,14.70
2022-12-28T11:39:21.656Z,14.40
2022-12-28T11:40:21.645Z,14.00
2022-12-28T11:41:21.644Z,14.00
2022-12-28T11:42:39.020Z,13.90
2022-12-28T11:43:21.634Z,14.30
2022-12-28T11:44:21.633Z,14.20
2022-12-28T11:45:21.629Z,14.40
2022-12-28T11:46:21.651Z,14.30
2022-12-28T11:47:27.949Z,13.70
2022-12-28T11:48:21.646Z,13.90
2022-12-28T11:49:21.626Z,14.00
2022-12-28T11:50:21.611Z,13.80
2022-12-28T11:51:21.613Z,14.30
2022-12-28T11:52:21.604Z,14.50
2022-12-28T11:53:21.609Z,14.30
2022-12-28T11:54:21.600Z,14.60
2022-12-28T11:55:21.603Z,14.40
2022-12-28T11:56:21.603Z,14.60
2022-12-28T11:57:21.595Z,14.40
2022-12-28T11:58:21.590Z,14.10
2022-12-28T11:59:21.609Z,14.30
2022-12-28T12:00:23.427Z,14.50
2022-12-28T12:01:21.611Z,14.40
2022-12-28T12:02:21.673Z,14.30
2022-12-28T12:03:21.595Z,14.60
2022-12-28T12:04:21.593Z,14.30
2022-12-28T12:05:21.623Z,14.60
2022-12-28T12:06:26.795Z,14.60
2022-12-28T12:07:24.794Z,14.70
2022-12-28T12:08:21.555Z,14.80
2022-12-28T12:09:21.590Z,14.50
2022-12-28T12:10:21.550Z,14.60
2022-12-28T12:11:21.549Z,14.70
2022-12-28T12:12:21.545Z,14.80
2022-12-28T12:13:21.545Z,14.90
2022-12-28T12:14:21.543Z,15.30
2022-12-28T12:15:21.534Z,15.00
2022-12-28T12:16:21.579Z,15.40
2022-12-28T12:17:21.541Z,15.50
2022-12-28T12:18:21.533Z,14.50
2022-12-28T12:19:21.524Z,14.50
2022-12-28T12:20:21.548Z,14.60
2022-12-28T12:21:21.517Z,15.10
2022-12-28T12:22:21.525Z,14.90
2022-12-28T12:23:21.515Z,15.00
2022-12-28T12:24:21.514Z,15.00
2022-12-28T12:25:21.513Z,14.70
2022-12-28T12:26:21.513Z,14.80
2022-12-28T12:27:21.498Z,14.20
2022-12-28T12:28:21.509Z,15.20
2022-12-28T12:29:21.504Z,15.00
2022-12-28T12:30:21.499Z,14.30
2022-12-28T12:31:21.783Z,14.20
2022-12-28T12:32:21.490Z,14.50
2022-12-28T12:33:21.483Z,14.30
2022-12-28T12:34:21.483Z,14.50
2022-12-28T12:35:21.490Z,14.40
2022-12-28T12:36:21.496Z,14.00
2022-12-28T12:37:21.473Z,14.10
2022-12-28T12:38:21.480Z,14.30
2022-12-28T12:39:21.465Z,14.00
2022-12-28T12:40:21.466Z,14.00
2022-12-28T12:41:21.460Z,14.20
2022-12-28T12:42:21.464Z,14.80
2022-12-28T12:43:21.461Z,14.40
2022-12-28T12:44:21.477Z,14.30
2022-12-28T12:45:21.451Z,14.20
2022-12-28T12:46:21.480Z,14.40
2022-12-28T12:47:21.441Z,14.30
2022-12-28T12:48:21.439Z,14.10
2022-12-28T12:49:21.435Z,14.00
2022-12-28T12:50:21.449Z,13.90
2022-12-28T12:51:21.433Z,14.00
2022-12-28T12:52:21.462Z,14.30
2022-12-28T12:53:21.428Z,14.30
2022-12-28T12:54:21.431Z,14.20